sensor_id;sensor_type;location;lat;lon;timestamp;pressure;altitude;pressure_sealevel;temperature;humidity
45525;BME280;31437;58.350;13.828;2022-11-18T00:01:16;99764.16;;;-0.08;100.00
45525;BME280;31437;58.350;13.828;2022-11-18T00:03:41;99759.84;;;-0.08;100.00
45525;BME280;31437;58.350;13.828;2022-11-18T00:06:10;99766.75;;;-0.08;100.00
45525;BME280;31437;58.350;13.828;2022-11-18T00:08:35;99766.69;;;-0.05;100.00
45525;BME280;31437;58.350;13.828;2022-11-18T00:11:08;99755.53;;;-0.07;100.00
45525;BME280;31437;58.350;13.828;2022-11-18T00:13:34;99751.28;;;-0.10;100.00
45525;BME280;31437;58.350;13.828;2022-11-18T00:16:19;99743.53;;;-0.10;100.00
45525;BME280;31437;58.350;13.828;2022-11-18T00:18:44;99753.00;;;-0.10;100.00
45525;BME280;31437;58.350;13.828;2022-11-18T00:21:10;99753.91;;;-0.11;100.00
45525;BME280;31437;58.350;13.828;2022-11-18T00:23:36;99750.50;;;-0.13;100.00
45525;BME280;31437;58.350;13.828;2022-11-18T00:26:11;99754.81;;;-0.15;100.00
45525;BME280;31437;58.350;13.828;2022-11-18T00:28:37;99755.69;;;-0.16;100.00
45525;BME280;31437;58.350;13.828;2022-11-18T00:31:07;99749.72;;;-0.18;100.00
45525;BME280;31437;58.350;13.828;2022-11-18T00:33:32;99753.19;;;-0.19;100.00
45525;BME280;31437;58.350;13.828;2022-11-18T00:35:58;99748.06;;;-0.22;100.00
45525;BME280;31437;58.350;13.828;2022-11-18T00:38:23;99744.72;;;-0.28;100.00
45525;BME280;31437;58.350;13.828;2022-11-18T00:40:57;99751.63;;;-0.30;100.00
45525;BME280;31437;58.350;13.828;2022-11-18T00:43:22;99756.03;;;-0.35;100.00
45525;BME280;31437;58.350;13.828;2022-11-18T00:45:47;99752.63;;;-0.38;100.00
45525;BME280;31437;58.350;13.828;2022-11-18T00:48:13;99747.56;;;-0.43;100.00
45525;BME280;31437;58.350;13.828;2022-11-18T00:50:38;99756.16;;;-0.44;100.00
45525;BME280;31437;58.350;13.828;2022-11-18T00:53:03;99754.53;;;-0.50;100.00
45525;BME280;31437;58.350;13.828;2022-11-18T00:55:28;99761.44;;;-0.53;100.00
45525;BME280;31437;58.350;13.828;2022-11-18T00:57:54;99760.66;;;-0.57;100.00
45525;BME280;31437;58.350;13.828;2022-11-18T01:00:19;99768.47;;;-0.61;100.00
45525;BME280;31437;58.350;13.828;2022-11-18T01:02:44;99773.66;;;-0.64;100.00
45525;BME280;31437;58.350;13.828;2022-11-18T01:05:11;99771.97;;;-0.67;100.00
45525;BME280;31437;58.350;13.828;2022-11-18T01:07:36;99783.19;;;-0.70;100.00
45525;BME280;31437;58.350;13.828;2022-11-18T01:10:01;99784.06;;;-0.71;100.00
45525;BME280;31437;58.350;13.828;2022-11-18T01:12:26;99788.34;;;-0.70;100.00
45525;BME280;31437;58.350;13.828;2022-11-18T01:15:10;99791.75;;;-0.69;100.00
45525;BME280;31437;58.350;13.828;2022-11-18T01:17:35;99802.06;;;-0.67;100.00
45525;BME280;31437;58.350;13.828;2022-11-18T01:20:01;99794.28;;;-0.66;100.00
45525;BME280;31437;58.350;13.828;2022-11-18T01:22:26;99795.13;;;-0.64;100.00
45525;BME280;31437;58.350;13.828;2022-11-18T01:24:51;99800.22;;;-0.61;100.00
45525;BME280;31437;58.350;13.828;2022-11-18T01:27:18;99795.03;;;-0.59;100.00
45525;BME280;31437;58.350;13.828;2022-11-18T01:29:43;99796.72;;;-0.55;100.00
45525;BME280;31437;58.350;13.828;2022-11-18T01:32:08;99797.53;;;-0.53;100.00
45525;BME280;31437;58.350;13.828;2022-11-18T01:34:34;99801.78;;;-0.51;100.00
45525;BME280;31437;58.350;13.828;2022-11-18T01:37:00;99810.34;;;-0.47;100.00
45525;BME280;31437;58.350;13.828;2022-11-18T01:39:25;99807.72;;;-0.46;100.00
45525;BME280;31437;58.350;13.828;2022-11-18T01:41:51;99811.13;;;-0.43;100.00
45525;BME280;31437;58.350;13.828;2022-11-18T01:47:00;99812.78;;;-0.38;100.00
45525;BME280;31437;58.350;13.828;2022-11-18T01:49:25;99808.41;;;-0.36;100.00
45525;BME280;31437;58.350;13.828;2022-11-18T01:51:53;99798.94;;;-0.34;100.00
45525;BME280;31437;58.350;13.828;2022-11-18T01:54:30;99804.09;;;-0.32;100.00
45525;BME280;31437;58.350;13.828;2022-11-18T01:56:57;99799.75;;;-0.30;100.00
45525;BME280;31437;58.350;13.828;2022-11-18T01:59:25;99794.53;;;-0.27;100.00
45525;BME280;31437;58.350;13.828;2022-11-18T02:01:53;99798.78;;;-0.23;100.00
45525;BME280;31437;58.350;13.828;2022-11-18T02:04:18;99797.00;;;-0.19;100.00
45525;BME280;31437;58.350;13.828;2022-11-18T02:06:44;99797.84;;;-0.17;100.00
45525;BME280;31437;58.350;13.828;2022-11-18T02:09:10;99802.94;;;-0.16;100.00
45525;BME280;31437;58.350;13.828;2022-11-18T02:11:35;99801.22;;;-0.14;100.00
45525;BME280;31437;58.350;13.828;2022-11-18T02:14:32;99803.75;;;-0.12;100.00
45525;BME280;31437;58.350;13.828;2022-11-18T02:19:49;99814.00;;;-0.09;100.00
45525;BME280;31437;58.350;13.828;2022-11-18T02:55:57;99798.31;;;0.06;100.00
45525;BME280;31437;58.350;13.828;2022-11-18T04:39:26;99866.66;;;0.30;100.00
45525;BME280;31437;58.350;13.828;2022-11-18T04:41:52;99880.38;;;0.32;100.00
45525;BME280;31437;58.350;13.828;2022-11-18T04:44:27;99881.22;;;0.34;100.00
45525;BME280;31437;58.350;13.828;2022-11-18T04:46:53;99885.47;;;0.35;100.00
45525;BME280;31437;58.350;13.828;2022-11-18T04:49:18;99896.63;;;0.37;100.00
45525;BME280;31437;58.350;13.828;2022-11-18T04:51:44;99893.16;;;0.40;100.00
45525;BME280;31437;58.350;13.828;2022-11-18T04:54:09;99896.56;;;0.42;100.00
45525;BME280;31437;58.350;13.828;2022-11-18T04:56:35;99887.06;;;0.44;100.00
45525;BME280;31437;58.350;13.828;2022-11-18T04:59:00;99899.91;;;0.47;100.00
45525;BME280;31437;58.350;13.828;2022-11-18T05:01:26;99897.31;;;0.49;100.00
45525;BME280;31437;58.350;13.828;2022-11-18T05:03:52;99892.09;;;0.52;100.00
45525;BME280;31437;58.350;13.828;2022-11-18T05:06:17;99898.09;;;0.54;100.00
45525;BME280;31437;58.350;13.828;2022-11-18T05:08:42;99897.19;;;0.55;100.00
45525;BME280;31437;58.350;13.828;2022-11-18T05:11:08;99910.94;;;0.55;100.00
45525;BME280;31437;58.350;13.828;2022-11-18T05:13:51;99911.00;;;0.54;100.00
45525;BME280;31437;58.350;13.828;2022-11-18T05:16:17;99917.84;;;0.55;100.00
45525;BME280;31437;58.350;13.828;2022-11-18T05:18:42;99929.06;;;0.52;100.00
45525;BME280;31437;58.350;13.828;2022-11-18T05:21:08;99924.84;;;0.48;100.00
45525;BME280;31437;58.350;13.828;2022-11-18T05:23:34;99926.63;;;0.44;100.00
45525;BME280;31437;58.350;13.828;2022-11-18T05:26:03;99919.81;;;0.40;100.00
45525;BME280;31437;58.350;13.828;2022-11-18T05:28:28;99930.16;;;0.39;100.00
45525;BME280;31437;58.350;13.828;2022-11-18T05:30:53;99929.31;;;0.38;100.00
45525;BME280;31437;58.350;13.828;2022-11-18T05:33:18;99928.44;;;0.38;100.00
45525;BME280;31437;58.350;13.828;2022-11-18T05:35:44;99943.13;;;0.36;100.00
45525;BME280;31437;58.350;13.828;2022-11-18T05:38:09;99937.97;;;0.36;100.00
45525;BME280;31437;58.350;13.828;2022-11-18T05:40:34;99940.53;;;0.36;100.00
45525;BME280;31437;58.350;13.828;2022-11-18T05:42:59;99943.97;;;0.36;100.00
45525;BME280;31437;58.350;13.828;2022-11-18T05:45:42;99939.72;;;0.34;100.00
45525;BME280;31437;58.350;13.828;2022-11-18T05:48:07;99941.44;;;0.32;100.00
45525;BME280;31437;58.350;13.828;2022-11-18T05:50:34;99946.63;;;0.32;100.00
45525;BME280;31437;58.350;13.828;2022-11-18T05:53:00;99946.63;;;0.32;100.00
45525;BME280;31437;58.350;13.828;2022-11-18T05:55:27;99947.50;;;0.31;100.00
45525;BME280;31437;58.350;13.828;2022-11-18T05:57:54;99955.19;;;0.32;100.00
45525;BME280;31437;58.350;13.828;2022-11-18T06:00:19;99954.34;;;0.32;100.00
45525;BME280;31437;58.350;13.828;2022-11-18T06:02:45;99953.50;;;0.31;100.00
45525;BME280;31437;58.350;13.828;2022-11-18T06:05:12;99953.50;;;0.33;100.00
45525;BME280;31437;58.350;13.828;2022-11-18T06:07:41;99956.94;;;0.33;100.00
45525;BME280;31437;58.350;13.828;2022-11-18T06:10:08;99952.63;;;0.34;100.00
45525;BME280;31437;58.350;13.828;2022-11-18T06:33:15;99986.13;;;0.35;100.00
45525;BME280;31437;58.350;13.828;2022-11-18T16:18:56;100188.53;;;-0.75;100.00
45525;BME280;31437;58.350;13.828;2022-11-18T16:21:21;100192.00;;;-0.78;100.00
45525;BME280;31437;58.350;13.828;2022-11-18T16:23:47;100198.88;;;-0.78;100.00
45525;BME280;31437;58.350;13.828;2022-11-18T16:26:12;100199.75;;;-0.81;100.00
45525;BME280;31437;58.350;13.828;2022-11-18T16:28:37;100198.03;;;-0.83;100.00
45525;BME280;31437;58.350;13.828;2022-11-18T16:31:04;100186.88;;;-0.85;100.00
45525;BME280;31437;58.350;13.828;2022-11-18T16:34:03;100187.78;;;-0.88;100.00
45525;BME280;31437;58.350;13.828;2022-11-18T16:36:28;100189.53;;;-0.90;100.00
45525;BME280;31437;58.350;13.828;2022-11-18T16:38:53;100187.81;;;-0.91;100.00
45525;BME280;31437;58.350;13.828;2022-11-18T16:43:54;100187.84;;;-0.94;100.00
45525;BME280;31437;58.350;13.828;2022-11-18T16:46:19;100181.81;;;-0.93;100.00
45525;BME280;31437;58.350;13.828;2022-11-18T16:48:44;100185.28;;;-0.94;100.00
45525;BME280;31437;58.350;13.828;2022-11-18T17:01:30;100193.84;;;-0.95;100.00
45525;BME280;31437;58.350;13.828;2022-11-18T17:03:57;100188.69;;;-0.95;100.00
45525;BME280;31437;58.350;13.828;2022-11-18T17:06:24;100189.53;;;-0.95;100.00
45525;BME280;31437;58.350;13.828;2022-11-18T17:08:50;100199.00;;;-0.94;100.00
45525;BME280;31437;58.350;13.828;2022-11-18T17:11:16;100180.97;;;-0.94;100.00
45525;BME280;31437;58.350;13.828;2022-11-18T17:13:42;100193.84;;;-0.94;100.00
45525;BME280;31437;58.350;13.828;2022-11-18T17:16:10;100186.97;;;-0.93;100.00
45525;BME280;31437;58.350;13.828;2022-11-18T17:18:35;100185.28;;;-0.94;100.00
45525;BME280;31437;58.350;13.828;2022-11-18T17:21:07;100197.25;;;-0.95;100.00
45525;BME280;31437;58.350;13.828;2022-11-18T17:23:34;100199.00;;;-0.95;100.00
45525;BME280;31437;58.350;13.828;2022-11-18T17:25:59;100204.13;;;-0.95;100.00
45525;BME280;31437;58.350;13.828;2022-11-18T17:28:25;100205.00;;;-0.98;100.00
45525;BME280;31437;58.350;13.828;2022-11-18T19:37:38;100202.66;;;-1.31;100.00
45525;BME280;31437;58.350;13.828;2022-11-18T19:47:49;100214.66;;;-1.26;100.00
45525;BME280;31437;58.350;13.828;2022-11-18T20:00:35;100212.91;;;-1.25;100.00
45525;BME280;31437;58.350;13.828;2022-11-18T20:21:10;100218.84;;;-1.12;100.00
45525;BME280;31437;58.350;13.828;2022-11-18T20:41:42;100229.97;;;-1.06;100.00
45525;BME280;31437;58.350;13.828;2022-11-18T20:46:42;100223.97;;;-1.05;100.00
45525;BME280;31437;58.350;13.828;2022-11-18T21:12:24;100205.88;;;-0.97;100.00
45525;BME280;31437;58.350;13.828;2022-11-18T21:14:49;100209.31;;;-0.97;100.00
45525;BME280;31437;58.350;13.828;2022-11-18T21:27:35;100194.69;;;-0.95;100.00
45525;BME280;31437;58.350;13.828;2022-11-18T21:35:10;100206.69;;;-0.90;100.00
45525;BME280;31437;58.350;13.828;2022-11-18T21:42:46;100188.69;;;-0.94;100.00
45525;BME280;31437;58.350;13.828;2022-11-18T21:45:11;100178.38;;;-0.95;100.00
45525;BME280;31437;58.350;13.828;2022-11-18T21:47:36;100188.72;;;-0.98;100.00
45525;BME280;31437;58.350;13.828;2022-11-18T21:50:02;100200.72;;;-1.00;100.00
45525;BME280;31437;58.350;13.828;2022-11-18T22:02:43;100214.53;;;-1.07;100.00
45525;BME280;31437;58.350;13.828;2022-11-18T22:05:08;100205.09;;;-1.10;100.00
45525;BME280;31437;58.350;13.828;2022-11-18T22:12:46;100213.69;;;-1.12;100.00
45525;BME280;31437;58.350;13.828;2022-11-18T22:15:13;100206.84;;;-1.15;100.00
45525;BME280;31437;58.350;13.828;2022-11-18T22:20:13;100216.31;;;-1.17;100.00
45525;BME280;31437;58.350;13.828;2022-11-18T22:22:38;100230.03;;;-1.17;100.00
45525;BME280;31437;58.350;13.828;2022-11-18T22:25:04;100218.84;;;-1.16;100.00
45525;BME280;31437;58.350;13.828;2022-11-18T22:27:29;100224.84;;;-1.15;100.00
45525;BME280;31437;58.350;13.828;2022-11-18T22:29:55;100208.56;;;-1.16;100.00
45525;BME280;31437;58.350;13.828;2022-11-18T22:34:55;100204.28;;;-1.13;100.00
45525;BME280;31437;58.350;13.828;2022-11-18T22:37:20;100212.00;;;-1.13;100.00
45525;BME280;31437;58.350;13.828;2022-11-18T22:39:46;100202.56;;;-1.15;100.00
45525;BME280;31437;58.350;13.828;2022-11-18T22:42:11;100198.28;;;-1.14;100.00
45525;BME280;31437;58.350;13.828;2022-11-18T22:44:55;100206.81;;;-1.12;100.00
45525;BME280;31437;58.350;13.828;2022-11-18T22:47:20;100202.53;;;-1.10;100.00
45525;BME280;31437;58.350;13.828;2022-11-18T22:49:46;100204.22;;;-1.09;100.00
45525;BME280;31437;58.350;13.828;2022-11-18T22:52:11;100206.78;;;-1.09;100.00
45525;BME280;31437;58.350;13.828;2022-11-18T22:54:36;100204.22;;;-1.09;100.00
45525;BME280;31437;58.350;13.828;2022-11-18T22:57:02;100198.22;;;-1.08;100.00
45525;BME280;31437;58.350;13.828;2022-11-18T22:59:27;100208.53;;;-1.08;100.00
45525;BME280;31437;58.350;13.828;2022-11-18T23:01:52;100199.06;;;-1.07;100.00
45525;BME280;31437;58.350;13.828;2022-11-18T23:04:18;100205.06;;;-1.07;100.00
45525;BME280;31437;58.350;13.828;2022-11-18T23:06:43;100202.53;;;-1.08;100.00
45525;BME280;31437;58.350;13.828;2022-11-18T23:09:09;100208.53;;;-1.09;100.00
45525;BME280;31437;58.350;13.828;2022-11-18T23:11:34;100209.41;;;-1.10;100.00
45525;BME280;31437;58.350;13.828;2022-11-18T23:14:17;100205.09;;;-1.10;100.00
45525;BME280;31437;58.350;13.828;2022-11-18T23:16:43;100211.13;;;-1.11;100.00
45525;BME280;31437;58.350;13.828;2022-11-18T23:19:12;100214.53;;;-1.12;100.00
45525;BME280;31437;58.350;13.828;2022-11-18T23:21:38;100208.56;;;-1.14;100.00
45525;BME280;31437;58.350;13.828;2022-11-18T23:24:04;100231.72;;;-1.12;100.00
45525;BME280;31437;58.350;13.828;2022-11-18T23:26:29;100228.28;;;-1.11;100.00
45525;BME280;31437;58.350;13.828;2022-11-18T23:28:55;100232.56;;;-1.12;100.00
45525;BME280;31437;58.350;13.828;2022-11-18T23:31:22;100236.84;;;-1.09;100.00
45525;BME280;31437;58.350;13.828;2022-11-18T23:33:48;100236.00;;;-1.10;100.00
45525;BME280;31437;58.350;13.828;2022-11-18T23:36:14;100234.28;;;-1.09;100.00
45525;BME280;31437;58.350;13.828;2022-11-18T23:38:40;100207.66;;;-1.10;100.00
45525;BME280;31437;58.350;13.828;2022-11-18T23:41:06;100216.25;;;-1.08;100.00
45525;BME280;31437;58.350;13.828;2022-11-18T23:43:32;100200.81;;;-1.08;100.00
45525;BME280;31437;58.350;13.828;2022-11-18T23:45:59;100201.66;;;-1.06;100.00
45525;BME280;31437;58.350;13.828;2022-11-18T23:48:25;100211.06;;;-1.03;100.00
45525;BME280;31437;58.350;13.828;2022-11-18T23:50:51;100219.63;;;-1.01;100.00
45525;BME280;31437;58.350;13.828;2022-11-18T23:53:17;100218.78;;;-1.02;100.00
45525;BME280;31437;58.350;13.828;2022-11-18T23:55:42;100223.94;;;-1.02;100.00
45525;BME280;31437;58.350;13.828;2022-11-18T23:58:07;100228.22;;;-1.01;100.00
